sensor_id;sensor_type;location;lat;lon;timestamp;P1;durP1;ratioP1;P2;durP2;ratioP2
17763;SDS011;22245;52.832;13.816;2024-02-04T00:02:36;14.43;;;2.80;;
17763;SDS011;22245;52.832;13.816;2024-02-04T00:05:58;13.33;;;2.70;;
17763;SDS011;22245;52.832;13.816;2024-02-04T00:09:19;16.73;;;3.10;;
17763;SDS011;22245;52.832;13.816;2024-02-04T00:12:41;9.57;;;3.07;;
17763;SDS011;22245;52.832;13.816;2024-02-04T00:16:05;15.87;;;2.80;;
17763;SDS011;22245;52.832;13.816;2024-02-04T00:19:27;13.87;;;3.50;;
17763;SDS011;22245;52.832;13.816;2024-02-04T00:22:48;10.43;;;3.03;;
17763;SDS011;22245;52.832;13.816;2024-02-04T00:26:10;14.27;;;2.73;;
17763;SDS011;22245;52.832;13.816;2024-02-04T00:29:31;16.23;;;3.20;;
17763;SDS011;22245;52.832;13.816;2024-02-04T00:32:54;13.70;;;3.10;;
17763;SDS011;22245;52.832;13.816;2024-02-04T00:36:15;12.07;;;2.83;;
17763;SDS011;22245;52.832;13.816;2024-02-04T00:39:38;11.37;;;2.47;;
17763;SDS011;22245;52.832;13.816;2024-02-04T00:43:00;15.03;;;2.50;;
17763;SDS011;22245;52.832;13.816;2024-02-04T00:46:22;16.27;;;2.63;;
17763;SDS011;22245;52.832;13.816;2024-02-04T00:49:44;11.33;;;2.60;;
17763;SDS011;22245;52.832;13.816;2024-02-04T00:53:07;13.27;;;2.87;;
17763;SDS011;22245;52.832;13.816;2024-02-04T00:56:29;10.37;;;2.40;;
17763;SDS011;22245;52.832;13.816;2024-02-04T00:59:50;10.13;;;3.23;;
17763;SDS011;22245;52.832;13.816;2024-02-04T01:03:12;13.23;;;2.70;;
17763;SDS011;22245;52.832;13.816;2024-02-04T01:06:35;11.93;;;2.33;;
17763;SDS011;22245;52.832;13.816;2024-02-04T01:10:15;12.73;;;2.70;;
17763;SDS011;22245;52.832;13.816;2024-02-04T01:13:37;11.13;;;2.60;;
17763;SDS011;22245;52.832;13.816;2024-02-04T01:16:58;12.17;;;2.43;;
17763;SDS011;22245;52.832;13.816;2024-02-04T01:20:19;10.77;;;2.20;;
17763;SDS011;22245;52.832;13.816;2024-02-04T01:23:42;10.07;;;2.40;;
17763;SDS011;22245;52.832;13.816;2024-02-04T01:27:03;14.50;;;2.30;;
17763;SDS011;22245;52.832;13.816;2024-02-04T01:30:25;14.27;;;2.47;;
17763;SDS011;22245;52.832;13.816;2024-02-04T01:33:47;9.33;;;2.27;;
17763;SDS011;22245;52.832;13.816;2024-02-04T01:37:08;13.03;;;2.00;;
17763;SDS011;22245;52.832;13.816;2024-02-04T01:40:31;10.60;;;3.33;;
17763;SDS011;22245;52.832;13.816;2024-02-04T01:43:52;17.57;;;3.97;;
17763;SDS011;22245;52.832;13.816;2024-02-04T01:47:14;8.07;;;1.87;;
17763;SDS011;22245;52.832;13.816;2024-02-04T01:50:36;18.43;;;2.80;;
17763;SDS011;22245;52.832;13.816;2024-02-04T01:53:57;16.80;;;3.27;;
17763;SDS011;22245;52.832;13.816;2024-02-04T01:57:20;8.57;;;2.20;;
17763;SDS011;22245;52.832;13.816;2024-02-04T02:00:43;14.60;;;3.90;;
17763;SDS011;22245;52.832;13.816;2024-02-04T02:04:06;14.77;;;2.47;;
17763;SDS011;22245;52.832;13.816;2024-02-04T02:07:27;12.97;;;2.73;;
17763;SDS011;22245;52.832;13.816;2024-02-04T02:10:49;10.17;;;2.10;;
17763;SDS011;22245;52.832;13.816;2024-02-04T02:14:19;13.70;;;2.70;;
17763;SDS011;22245;52.832;13.816;2024-02-04T02:17:45;13.30;;;2.50;;
17763;SDS011;22245;52.832;13.816;2024-02-04T02:21:16;10.63;;;2.50;;
17763;SDS011;22245;52.832;13.816;2024-02-04T02:24:46;11.20;;;2.37;;
17763;SDS011;22245;52.832;13.816;2024-02-04T02:28:09;9.27;;;1.80;;
17763;SDS011;22245;52.832;13.816;2024-02-04T02:31:31;9.53;;;2.10;;
17763;SDS011;22245;52.832;13.816;2024-02-04T02:35:06;12.23;;;2.57;;
17763;SDS011;22245;52.832;13.816;2024-02-04T02:38:31;16.47;;;2.40;;
17763;SDS011;22245;52.832;13.816;2024-02-04T02:42:01;12.87;;;2.63;;
17763;SDS011;22245;52.832;13.816;2024-02-04T02:45:25;14.57;;;2.97;;
17763;SDS011;22245;52.832;13.816;2024-02-04T02:48:47;13.67;;;2.27;;
17763;SDS011;22245;52.832;13.816;2024-02-04T02:52:08;12.47;;;2.00;;
17763;SDS011;22245;52.832;13.816;2024-02-04T02:55:30;12.47;;;2.33;;
17763;SDS011;22245;52.832;13.816;2024-02-04T02:58:53;10.23;;;2.00;;
17763;SDS011;22245;52.832;13.816;2024-02-04T03:02:14;11.67;;;2.97;;
17763;SDS011;22245;52.832;13.816;2024-02-04T03:05:36;9.30;;;1.93;;
17763;SDS011;22245;52.832;13.816;2024-02-04T03:08:58;10.70;;;2.80;;
17763;SDS011;22245;52.832;13.816;2024-02-04T03:12:20;10.70;;;3.03;;
17763;SDS011;22245;52.832;13.816;2024-02-04T03:15:44;18.20;;;3.30;;
17763;SDS011;22245;52.832;13.816;2024-02-04T03:19:06;8.60;;;2.20;;
17763;SDS011;22245;52.832;13.816;2024-02-04T03:22:28;13.17;;;2.70;;
17763;SDS011;22245;52.832;13.816;2024-02-04T03:25:50;9.73;;;2.27;;
17763;SDS011;22245;52.832;13.816;2024-02-04T03:29:12;12.90;;;2.17;;
17763;SDS011;22245;52.832;13.816;2024-02-04T03:32:35;11.17;;;2.03;;
17763;SDS011;22245;52.832;13.816;2024-02-04T03:35:57;11.37;;;2.10;;
17763;SDS011;22245;52.832;13.816;2024-02-04T03:39:18;10.03;;;1.97;;
17763;SDS011;22245;52.832;13.816;2024-02-04T03:42:40;16.97;;;2.97;;
17763;SDS011;22245;52.832;13.816;2024-02-04T03:46:02;7.43;;;1.97;;
17763;SDS011;22245;52.832;13.816;2024-02-04T03:49:26;13.17;;;2.40;;
17763;SDS011;22245;52.832;13.816;2024-02-04T03:52:47;10.53;;;2.00;;
17763;SDS011;22245;52.832;13.816;2024-02-04T03:56:09;9.03;;;1.97;;
17763;SDS011;22245;52.832;13.816;2024-02-04T03:59:31;10.73;;;2.33;;
17763;SDS011;22245;52.832;13.816;2024-02-04T04:02:52;10.63;;;1.83;;
17763;SDS011;22245;52.832;13.816;2024-02-04T04:06:16;11.13;;;2.30;;
17763;SDS011;22245;52.832;13.816;2024-02-04T04:09:37;11.67;;;2.23;;
17763;SDS011;22245;52.832;13.816;2024-02-04T04:12:59;12.00;;;1.90;;
17763;SDS011;22245;52.832;13.816;2024-02-04T04:16:21;9.07;;;2.23;;
17763;SDS011;22245;52.832;13.816;2024-02-04T04:19:43;12.33;;;2.57;;
17763;SDS011;22245;52.832;13.816;2024-02-04T04:23:06;9.40;;;2.30;;
17763;SDS011;22245;52.832;13.816;2024-02-04T04:26:28;9.87;;;2.30;;
17763;SDS011;22245;52.832;13.816;2024-02-04T04:29:49;15.70;;;3.27;;
17763;SDS011;22245;52.832;13.816;2024-02-04T04:33:11;10.20;;;2.50;;
17763;SDS011;22245;52.832;13.816;2024-02-04T04:36:33;14.17;;;2.60;;
17763;SDS011;22245;52.832;13.816;2024-02-04T04:39:56;9.57;;;2.20;;
17763;SDS011;22245;52.832;13.816;2024-02-04T04:43:18;13.83;;;2.97;;
17763;SDS011;22245;52.832;13.816;2024-02-04T04:46:39;12.40;;;2.60;;
17763;SDS011;22245;52.832;13.816;2024-02-04T04:50:01;7.47;;;2.87;;
17763;SDS011;22245;52.832;13.816;2024-02-04T04:53:23;9.03;;;2.50;;
17763;SDS011;22245;52.832;13.816;2024-02-04T04:56:45;7.07;;;2.43;;
17763;SDS011;22245;52.832;13.816;2024-02-04T05:00:07;17.30;;;3.37;;
17763;SDS011;22245;52.832;13.816;2024-02-04T05:03:30;10.73;;;2.53;;
17763;SDS011;22245;52.832;13.816;2024-02-04T05:06:52;11.93;;;2.37;;
17763;SDS011;22245;52.832;13.816;2024-02-04T05:10:14;9.57;;;3.20;;
17763;SDS011;22245;52.832;13.816;2024-02-04T05:13:39;9.13;;;2.50;;
17763;SDS011;22245;52.832;13.816;2024-02-04T05:17:00;10.83;;;2.50;;
17763;SDS011;22245;52.832;13.816;2024-02-04T05:20:22;14.23;;;3.10;;
17763;SDS011;22245;52.832;13.816;2024-02-04T05:23:43;12.90;;;2.70;;
17763;SDS011;22245;52.832;13.816;2024-02-04T05:27:04;6.20;;;2.30;;
17763;SDS011;22245;52.832;13.816;2024-02-04T05:30:27;13.70;;;2.30;;
17763;SDS011;22245;52.832;13.816;2024-02-04T05:33:48;8.30;;;2.70;;
17763;SDS011;22245;52.832;13.816;2024-02-04T05:37:12;9.93;;;2.27;;
17763;SDS011;22245;52.832;13.816;2024-02-04T05:40:34;10.03;;;2.63;;
17763;SDS011;22245;52.832;13.816;2024-02-04T05:43:56;7.83;;;2.57;;
17763;SDS011;22245;52.832;13.816;2024-02-04T05:47:18;9.63;;;2.70;;
17763;SDS011;22245;52.832;13.816;2024-02-04T05:50:40;9.73;;;2.33;;
17763;SDS011;22245;52.832;13.816;2024-02-04T05:54:02;10.17;;;2.67;;
17763;SDS011;22245;52.832;13.816;2024-02-04T05:57:23;10.87;;;2.27;;
17763;SDS011;22245;52.832;13.816;2024-02-04T06:00:44;8.97;;;2.03;;
17763;SDS011;22245;52.832;13.816;2024-02-04T06:04:07;9.10;;;2.40;;
17763;SDS011;22245;52.832;13.816;2024-02-04T06:07:29;9.17;;;2.63;;
17763;SDS011;22245;52.832;13.816;2024-02-04T06:10:50;7.83;;;2.03;;
17763;SDS011;22245;52.832;13.816;2024-02-04T06:14:11;7.17;;;1.80;;
17763;SDS011;22245;52.832;13.816;2024-02-04T06:17:33;7.27;;;1.90;;
17763;SDS011;22245;52.832;13.816;2024-02-04T06:20:56;7.37;;;2.00;;
17763;SDS011;22245;52.832;13.816;2024-02-04T06:24:17;7.50;;;2.57;;
17763;SDS011;22245;52.832;13.816;2024-02-04T06:27:40;7.73;;;2.53;;
17763;SDS011;22245;52.832;13.816;2024-02-04T06:31:02;11.17;;;2.80;;
17763;SDS011;22245;52.832;13.816;2024-02-04T06:34:24;8.10;;;2.13;;
17763;SDS011;22245;52.832;13.816;2024-02-04T06:37:47;8.63;;;2.17;;
17763;SDS011;22245;52.832;13.816;2024-02-04T06:41:08;8.90;;;2.20;;
17763;SDS011;22245;52.832;13.816;2024-02-04T06:44:29;8.50;;;2.00;;
17763;SDS011;22245;52.832;13.816;2024-02-04T06:47:50;10.07;;;2.23;;
17763;SDS011;22245;52.832;13.816;2024-02-04T06:51:12;5.37;;;1.93;;
17763;SDS011;22245;52.832;13.816;2024-02-04T06:54:35;10.60;;;2.30;;
17763;SDS011;22245;52.832;13.816;2024-02-04T06:57:56;8.97;;;2.20;;
17763;SDS011;22245;52.832;13.816;2024-02-04T07:01:18;5.37;;;1.70;;
17763;SDS011;22245;52.832;13.816;2024-02-04T07:04:40;10.07;;;2.53;;
17763;SDS011;22245;52.832;13.816;2024-02-04T07:08:01;9.97;;;2.17;;
17763;SDS011;22245;52.832;13.816;2024-02-04T07:11:24;14.70;;;4.03;;
17763;SDS011;22245;52.832;13.816;2024-02-04T07:14:46;8.00;;;2.00;;
17763;SDS011;22245;52.832;13.816;2024-02-04T07:18:08;10.27;;;2.17;;
17763;SDS011;22245;52.832;13.816;2024-02-04T07:21:30;8.03;;;2.23;;
17763;SDS011;22245;52.832;13.816;2024-02-04T07:24:51;7.27;;;2.90;;
17763;SDS011;22245;52.832;13.816;2024-02-04T07:28:14;8.47;;;2.47;;
17763;SDS011;22245;52.832;13.816;2024-02-04T07:31:36;9.40;;;2.57;;
17763;SDS011;22245;52.832;13.816;2024-02-04T07:34:58;10.90;;;2.63;;
17763;SDS011;22245;52.832;13.816;2024-02-04T07:38:19;7.63;;;2.83;;
17763;SDS011;22245;52.832;13.816;2024-02-04T07:41:41;9.03;;;3.00;;
17763;SDS011;22245;52.832;13.816;2024-02-04T07:45:03;8.43;;;2.70;;
17763;SDS011;22245;52.832;13.816;2024-02-04T07:48:29;10.10;;;2.50;;
17763;SDS011;22245;52.832;13.816;2024-02-04T07:51:51;9.33;;;3.20;;
17763;SDS011;22245;52.832;13.816;2024-02-04T07:55:12;9.93;;;3.10;;
17763;SDS011;22245;52.832;13.816;2024-02-04T07:58:34;10.47;;;3.20;;
17763;SDS011;22245;52.832;13.816;2024-02-04T08:01:57;10.23;;;2.83;;
17763;SDS011;22245;52.832;13.816;2024-02-04T08:05:19;10.33;;;3.23;;
17763;SDS011;22245;52.832;13.816;2024-02-04T08:08:40;9.10;;;3.07;;
17763;SDS011;22245;52.832;13.816;2024-02-04T08:12:06;13.77;;;3.37;;
17763;SDS011;22245;52.832;13.816;2024-02-04T08:15:29;9.83;;;4.00;;
17763;SDS011;22245;52.832;13.816;2024-02-04T08:18:52;11.80;;;3.67;;
17763;SDS011;22245;52.832;13.816;2024-02-04T08:22:14;9.67;;;5.27;;
17763;SDS011;22245;52.832;13.816;2024-02-04T08:25:38;10.83;;;3.70;;
17763;SDS011;22245;52.832;13.816;2024-02-04T08:28:59;12.53;;;3.63;;
17763;SDS011;22245;52.832;13.816;2024-02-04T08:32:20;11.73;;;3.50;;
17763;SDS011;22245;52.832;13.816;2024-02-04T08:35:43;10.63;;;3.70;;
17763;SDS011;22245;52.832;13.816;2024-02-04T08:39:04;7.37;;;3.40;;
17763;SDS011;22245;52.832;13.816;2024-02-04T08:42:26;13.83;;;3.80;;
17763;SDS011;22245;52.832;13.816;2024-02-04T08:45:48;10.80;;;3.43;;
17763;SDS011;22245;52.832;13.816;2024-02-04T08:49:09;10.80;;;3.50;;
17763;SDS011;22245;52.832;13.816;2024-02-04T08:52:33;11.50;;;3.93;;
17763;SDS011;22245;52.832;13.816;2024-02-04T08:55:54;7.17;;;3.30;;
17763;SDS011;22245;52.832;13.816;2024-02-04T08:59:16;14.30;;;4.20;;
17763;SDS011;22245;52.832;13.816;2024-02-04T09:02:37;9.27;;;3.13;;
17763;SDS011;22245;52.832;13.816;2024-02-04T09:06:00;10.80;;;3.70;;
17763;SDS011;22245;52.832;13.816;2024-02-04T09:09:23;18.67;;;4.33;;
17763;SDS011;22245;52.832;13.816;2024-02-04T09:12:44;9.17;;;4.27;;
17763;SDS011;22245;52.832;13.816;2024-02-04T09:16:06;8.27;;;3.00;;
17763;SDS011;22245;52.832;13.816;2024-02-04T09:19:28;9.57;;;3.40;;
17763;SDS011;22245;52.832;13.816;2024-02-04T09:22:51;10.17;;;3.53;;
17763;SDS011;22245;52.832;13.816;2024-02-04T09:26:14;10.03;;;3.57;;
17763;SDS011;22245;52.832;13.816;2024-02-04T09:29:38;9.43;;;3.30;;
17763;SDS011;22245;52.832;13.816;2024-02-04T09:32:59;9.30;;;3.47;;
17763;SDS011;22245;52.832;13.816;2024-02-04T09:36:21;7.33;;;3.00;;
17763;SDS011;22245;52.832;13.816;2024-02-04T09:39:43;9.67;;;3.80;;
17763;SDS011;22245;52.832;13.816;2024-02-04T09:43:06;8.33;;;3.40;;
17763;SDS011;22245;52.832;13.816;2024-02-04T09:46:29;15.30;;;3.47;;
17763;SDS011;22245;52.832;13.816;2024-02-04T09:49:51;10.70;;;4.00;;
17763;SDS011;22245;52.832;13.816;2024-02-04T09:53:16;10.53;;;3.13;;
17763;SDS011;22245;52.832;13.816;2024-02-04T09:56:42;11.47;;;3.00;;
17763;SDS011;22245;52.832;13.816;2024-02-04T10:00:07;10.33;;;3.20;;
17763;SDS011;22245;52.832;13.816;2024-02-04T10:03:31;9.60;;;3.20;;
17763;SDS011;22245;52.832;13.816;2024-02-04T10:06:52;8.93;;;3.07;;
17763;SDS011;22245;52.832;13.816;2024-02-04T10:10:14;8.00;;;2.63;;
17763;SDS011;22245;52.832;13.816;2024-02-04T10:13:41;9.37;;;2.37;;
17763;SDS011;22245;52.832;13.816;2024-02-04T10:17:06;7.03;;;2.87;;
17763;SDS011;22245;52.832;13.816;2024-02-04T10:20:28;10.03;;;2.30;;
17763;SDS011;22245;52.832;13.816;2024-02-04T10:23:49;7.90;;;2.60;;
17763;SDS011;22245;52.832;13.816;2024-02-04T10:27:11;10.73;;;2.57;;
17763;SDS011;22245;52.832;13.816;2024-02-04T10:30:45;10.27;;;2.27;;
17763;SDS011;22245;52.832;13.816;2024-02-04T10:34:09;7.10;;;2.60;;
17763;SDS011;22245;52.832;13.816;2024-02-04T10:37:30;6.10;;;2.43;;
17763;SDS011;22245;52.832;13.816;2024-02-04T10:40:53;6.57;;;1.97;;
17763;SDS011;22245;52.832;13.816;2024-02-04T10:44:16;9.27;;;2.33;;
17763;SDS011;22245;52.832;13.816;2024-02-04T10:47:38;8.50;;;2.10;;
17763;SDS011;22245;52.832;13.816;2024-02-04T10:51:01;8.40;;;1.73;;
17763;SDS011;22245;52.832;13.816;2024-02-04T10:54:23;10.70;;;2.20;;
17763;SDS011;22245;52.832;13.816;2024-02-04T10:57:48;7.50;;;1.97;;
17763;SDS011;22245;52.832;13.816;2024-02-04T11:01:09;7.50;;;2.40;;
17763;SDS011;22245;52.832;13.816;2024-02-04T11:04:32;8.77;;;2.20;;
17763;SDS011;22245;52.832;13.816;2024-02-04T11:07:56;8.20;;;2.57;;
17763;SDS011;22245;52.832;13.816;2024-02-04T11:11:18;9.50;;;2.03;;
17763;SDS011;22245;52.832;13.816;2024-02-04T11:14:42;5.53;;;1.73;;
17763;SDS011;22245;52.832;13.816;2024-02-04T11:22:09;6.50;;;1.60;;
17763;SDS011;22245;52.832;13.816;2024-02-04T11:25:51;8.73;;;2.00;;
17763;SDS011;22245;52.832;13.816;2024-02-04T11:29:18;6.63;;;3.27;;
17763;SDS011;22245;52.832;13.816;2024-02-04T11:32:39;7.80;;;1.77;;
17763;SDS011;22245;52.832;13.816;2024-02-04T11:36:05;5.17;;;1.70;;
17763;SDS011;22245;52.832;13.816;2024-02-04T11:39:29;6.57;;;1.97;;
17763;SDS011;22245;52.832;13.816;2024-02-04T11:42:52;6.03;;;1.77;;
17763;SDS011;22245;52.832;13.816;2024-02-04T11:46:27;6.97;;;2.10;;
17763;SDS011;22245;52.832;13.816;2024-02-04T11:49:53;6.00;;;2.03;;
17763;SDS011;22245;52.832;13.816;2024-02-04T11:53:15;6.80;;;1.70;;
17763;SDS011;22245;52.832;13.816;2024-02-04T11:56:37;6.67;;;1.70;;
17763;SDS011;22245;52.832;13.816;2024-02-04T12:00:01;4.23;;;1.77;;
17763;SDS011;22245;52.832;13.816;2024-02-04T12:03:29;7.33;;;1.60;;
17763;SDS011;22245;52.832;13.816;2024-02-04T12:06:51;9.00;;;1.90;;
17763;SDS011;22245;52.832;13.816;2024-02-04T12:10:13;5.53;;;1.87;;
17763;SDS011;22245;52.832;13.816;2024-02-04T12:13:35;5.50;;;1.90;;
17763;SDS011;22245;52.832;13.816;2024-02-04T12:17:07;8.10;;;1.97;;
17763;SDS011;22245;52.832;13.816;2024-02-04T12:20:31;6.80;;;2.33;;
17763;SDS011;22245;52.832;13.816;2024-02-04T12:23:53;6.53;;;2.20;;
17763;SDS011;22245;52.832;13.816;2024-02-04T12:27:15;7.30;;;2.00;;
17763;SDS011;22245;52.832;13.816;2024-02-04T12:30:36;7.53;;;2.20;;
17763;SDS011;22245;52.832;13.816;2024-02-04T12:34:00;9.87;;;2.00;;
17763;SDS011;22245;52.832;13.816;2024-02-04T12:37:23;7.87;;;2.03;;
17763;SDS011;22245;52.832;13.816;2024-02-04T12:40:44;6.17;;;1.97;;
17763;SDS011;22245;52.832;13.816;2024-02-04T12:44:05;4.90;;;2.13;;
17763;SDS011;22245;52.832;13.816;2024-02-04T12:47:27;5.73;;;2.00;;
17763;SDS011;22245;52.832;13.816;2024-02-04T12:50:50;7.47;;;2.40;;
17763;SDS011;22245;52.832;13.816;2024-02-04T12:54:11;5.87;;;1.80;;
17763;SDS011;22245;52.832;13.816;2024-02-04T12:57:33;5.63;;;1.90;;
17763;SDS011;22245;52.832;13.816;2024-02-04T13:00:59;8.70;;;2.73;;
17763;SDS011;22245;52.832;13.816;2024-02-04T13:04:22;8.07;;;2.30;;
17763;SDS011;22245;52.832;13.816;2024-02-04T13:07:45;7.40;;;1.80;;
17763;SDS011;22245;52.832;13.816;2024-02-04T13:11:07;5.40;;;2.20;;
17763;SDS011;22245;52.832;13.816;2024-02-04T13:14:28;9.27;;;2.00;;
17763;SDS011;22245;52.832;13.816;2024-02-04T13:17:50;7.40;;;1.93;;
17763;SDS011;22245;52.832;13.816;2024-02-04T13:21:12;7.00;;;2.30;;
17763;SDS011;22245;52.832;13.816;2024-02-04T13:24:34;6.73;;;2.40;;
17763;SDS011;22245;52.832;13.816;2024-02-04T13:27:56;6.37;;;2.10;;
17763;SDS011;22245;52.832;13.816;2024-02-04T13:31:18;9.50;;;2.60;;
17763;SDS011;22245;52.832;13.816;2024-02-04T13:34:39;7.23;;;2.37;;
17763;SDS011;22245;52.832;13.816;2024-02-04T13:38:01;6.17;;;2.30;;
17763;SDS011;22245;52.832;13.816;2024-02-04T13:41:24;9.63;;;2.40;;
17763;SDS011;22245;52.832;13.816;2024-02-04T13:44:46;5.27;;;1.80;;
17763;SDS011;22245;52.832;13.816;2024-02-04T13:48:07;10.13;;;2.43;;
17763;SDS011;22245;52.832;13.816;2024-02-04T13:51:29;16.07;;;3.30;;
17763;SDS011;22245;52.832;13.816;2024-02-04T13:55:03;6.77;;;2.20;;
17763;SDS011;22245;52.832;13.816;2024-02-04T13:58:28;7.33;;;2.10;;
17763;SDS011;22245;52.832;13.816;2024-02-04T14:01:49;5.93;;;2.10;;
17763;SDS011;22245;52.832;13.816;2024-02-04T14:05:11;10.03;;;2.33;;
17763;SDS011;22245;52.832;13.816;2024-02-04T14:08:33;7.93;;;2.20;;
17763;SDS011;22245;52.832;13.816;2024-02-04T14:11:55;7.77;;;3.20;;
17763;SDS011;22245;52.832;13.816;2024-02-04T14:15:18;10.27;;;2.33;;
17763;SDS011;22245;52.832;13.816;2024-02-04T14:18:40;6.27;;;2.20;;
17763;SDS011;22245;52.832;13.816;2024-02-04T14:22:06;7.77;;;2.37;;
17763;SDS011;22245;52.832;13.816;2024-02-04T14:25:28;12.33;;;2.40;;
17763;SDS011;22245;52.832;13.816;2024-02-04T14:28:50;8.53;;;2.50;;
17763;SDS011;22245;52.832;13.816;2024-02-04T14:32:13;8.77;;;2.00;;
17763;SDS011;22245;52.832;13.816;2024-02-04T14:35:35;12.40;;;2.10;;
17763;SDS011;22245;52.832;13.816;2024-02-04T14:38:56;6.33;;;2.00;;
17763;SDS011;22245;52.832;13.816;2024-02-04T14:42:18;9.97;;;2.43;;
17763;SDS011;22245;52.832;13.816;2024-02-04T14:45:40;8.43;;;1.93;;
17763;SDS011;22245;52.832;13.816;2024-02-04T14:49:03;8.37;;;1.90;;
17763;SDS011;22245;52.832;13.816;2024-02-04T14:52:25;7.27;;;2.00;;
17763;SDS011;22245;52.832;13.816;2024-02-04T14:55:46;10.13;;;2.43;;
17763;SDS011;22245;52.832;13.816;2024-02-04T14:59:08;6.43;;;2.20;;
17763;SDS011;22245;52.832;13.816;2024-02-04T15:02:42;8.70;;;2.10;;
17763;SDS011;22245;52.832;13.816;2024-02-04T15:06:05;9.40;;;2.40;;
17763;SDS011;22245;52.832;13.816;2024-02-04T15:09:27;6.77;;;2.47;;
17763;SDS011;22245;52.832;13.816;2024-02-04T15:12:49;7.40;;;1.83;;
17763;SDS011;22245;52.832;13.816;2024-02-04T15:16:13;5.07;;;2.03;;
17763;SDS011;22245;52.832;13.816;2024-02-04T15:19:36;10.40;;;1.93;;
17763;SDS011;22245;52.832;13.816;2024-02-04T15:22:59;9.47;;;1.80;;
17763;SDS011;22245;52.832;13.816;2024-02-04T15:26:21;4.50;;;1.93;;
17763;SDS011;22245;52.832;13.816;2024-02-04T15:29:44;10.77;;;2.10;;
17763;SDS011;22245;52.832;13.816;2024-02-04T15:33:09;10.47;;;2.07;;
17763;SDS011;22245;52.832;13.816;2024-02-04T15:36:31;8.43;;;2.40;;
17763;SDS011;22245;52.832;13.816;2024-02-04T15:39:54;6.77;;;1.90;;
17763;SDS011;22245;52.832;13.816;2024-02-04T15:43:17;6.13;;;1.80;;
17763;SDS011;22245;52.832;13.816;2024-02-04T15:46:38;9.23;;;2.03;;
17763;SDS011;22245;52.832;13.816;2024-02-04T15:50:03;7.27;;;1.93;;
17763;SDS011;22245;52.832;13.816;2024-02-04T15:53:25;9.43;;;2.07;;
17763;SDS011;22245;52.832;13.816;2024-02-04T15:56:54;9.87;;;2.47;;
17763;SDS011;22245;52.832;13.816;2024-02-04T16:00:18;8.87;;;1.80;;
17763;SDS011;22245;52.832;13.816;2024-02-04T16:03:43;11.50;;;1.90;;
17763;SDS011;22245;52.832;13.816;2024-02-04T16:07:05;7.30;;;1.87;;
17763;SDS011;22245;52.832;13.816;2024-02-04T16:10:29;10.07;;;2.17;;
17763;SDS011;22245;52.832;13.816;2024-02-04T16:13:52;9.63;;;2.40;;
17763;SDS011;22245;52.832;13.816;2024-02-04T16:17:16;6.83;;;2.10;;
17763;SDS011;22245;52.832;13.816;2024-02-04T16:20:39;7.73;;;2.53;;
17763;SDS011;22245;52.832;13.816;2024-02-04T16:24:04;5.30;;;2.23;;
17763;SDS011;22245;52.832;13.816;2024-02-04T16:27:26;4.93;;;2.10;;
17763;SDS011;22245;52.832;13.816;2024-02-04T16:30:50;4.70;;;1.90;;
17763;SDS011;22245;52.832;13.816;2024-02-04T16:34:11;6.77;;;1.97;;
17763;SDS011;22245;52.832;13.816;2024-02-04T16:37:33;6.30;;;2.07;;
17763;SDS011;22245;52.832;13.816;2024-02-04T16:40:55;10.83;;;2.40;;
17763;SDS011;22245;52.832;13.816;2024-02-04T16:44:16;7.63;;;2.07;;
17763;SDS011;22245;52.832;13.816;2024-02-04T16:47:39;9.30;;;2.37;;
17763;SDS011;22245;52.832;13.816;2024-02-04T16:51:00;11.87;;;2.33;;
17763;SDS011;22245;52.832;13.816;2024-02-04T16:54:22;6.43;;;2.17;;
17763;SDS011;22245;52.832;13.816;2024-02-04T16:57:48;8.17;;;2.23;;
17763;SDS011;22245;52.832;13.816;2024-02-04T17:01:10;8.73;;;1.90;;
17763;SDS011;22245;52.832;13.816;2024-02-04T17:04:33;6.93;;;2.23;;
17763;SDS011;22245;52.832;13.816;2024-02-04T17:07:56;8.37;;;2.07;;
17763;SDS011;22245;52.832;13.816;2024-02-04T17:11:18;7.93;;;2.13;;
17763;SDS011;22245;52.832;13.816;2024-02-04T17:14:41;5.07;;;2.00;;
17763;SDS011;22245;52.832;13.816;2024-02-04T17:18:05;6.37;;;2.00;;
17763;SDS011;22245;52.832;13.816;2024-02-04T17:21:32;9.40;;;2.80;;
17763;SDS011;22245;52.832;13.816;2024-02-04T17:25:02;6.87;;;2.10;;
17763;SDS011;22245;52.832;13.816;2024-02-04T17:28:24;10.93;;;2.20;;
17763;SDS011;22245;52.832;13.816;2024-02-04T17:31:47;8.67;;;2.80;;
17763;SDS011;22245;52.832;13.816;2024-02-04T17:35:08;9.00;;;2.53;;
17763;SDS011;22245;52.832;13.816;2024-02-04T17:38:32;4.53;;;2.20;;
17763;SDS011;22245;52.832;13.816;2024-02-04T17:41:54;8.37;;;2.57;;
17763;SDS011;22245;52.832;13.816;2024-02-04T17:45:15;8.60;;;2.60;;
17763;SDS011;22245;52.832;13.816;2024-02-04T17:48:36;9.53;;;2.50;;
17763;SDS011;22245;52.832;13.816;2024-02-04T17:51:58;8.47;;;2.40;;
17763;SDS011;22245;52.832;13.816;2024-02-04T17:55:21;9.37;;;2.60;;
17763;SDS011;22245;52.832;13.816;2024-02-04T17:58:44;6.97;;;2.67;;
17763;SDS011;22245;52.832;13.816;2024-02-04T18:02:07;10.50;;;2.87;;
17763;SDS011;22245;52.832;13.816;2024-02-04T18:05:29;6.40;;;2.37;;
17763;SDS011;22245;52.832;13.816;2024-02-04T18:08:51;7.10;;;2.60;;
17763;SDS011;22245;52.832;13.816;2024-02-04T18:12:14;6.40;;;2.40;;
17763;SDS011;22245;52.832;13.816;2024-02-04T18:15:36;7.10;;;2.60;;
17763;SDS011;22245;52.832;13.816;2024-02-04T18:18:57;5.57;;;1.90;;
17763;SDS011;22245;52.832;13.816;2024-02-04T18:22:19;6.50;;;2.57;;
17763;SDS011;22245;52.832;13.816;2024-02-04T18:25:40;7.60;;;2.30;;
17763;SDS011;22245;52.832;13.816;2024-02-04T18:29:04;7.37;;;2.10;;
17763;SDS011;22245;52.832;13.816;2024-02-04T18:32:26;6.07;;;2.17;;
17763;SDS011;22245;52.832;13.816;2024-02-04T18:35:47;7.00;;;2.47;;
17763;SDS011;22245;52.832;13.816;2024-02-04T18:39:09;9.50;;;2.70;;
17763;SDS011;22245;52.832;13.816;2024-02-04T18:42:31;5.40;;;2.07;;
17763;SDS011;22245;52.832;13.816;2024-02-04T18:45:55;5.17;;;2.10;;
17763;SDS011;22245;52.832;13.816;2024-02-04T18:49:16;7.73;;;2.30;;
17763;SDS011;22245;52.832;13.816;2024-02-04T18:52:38;5.97;;;1.80;;
17763;SDS011;22245;52.832;13.816;2024-02-04T18:55:59;7.67;;;2.10;;
17763;SDS011;22245;52.832;13.816;2024-02-04T18:59:24;4.40;;;1.97;;
17763;SDS011;22245;52.832;13.816;2024-02-04T19:02:47;9.73;;;3.17;;
17763;SDS011;22245;52.832;13.816;2024-02-04T19:06:08;7.30;;;2.10;;
17763;SDS011;22245;52.832;13.816;2024-02-04T19:09:31;5.40;;;2.50;;
17763;SDS011;22245;52.832;13.816;2024-02-04T19:12:53;7.47;;;2.80;;
17763;SDS011;22245;52.832;13.816;2024-02-04T19:16:18;7.70;;;2.60;;
17763;SDS011;22245;52.832;13.816;2024-02-04T19:19:42;4.63;;;1.87;;
17763;SDS011;22245;52.832;13.816;2024-02-04T19:23:03;6.40;;;2.23;;
17763;SDS011;22245;52.832;13.816;2024-02-04T19:26:27;6.17;;;2.30;;
17763;SDS011;22245;52.832;13.816;2024-02-04T19:29:49;6.97;;;2.37;;
17763;SDS011;22245;52.832;13.816;2024-02-04T19:33:11;6.47;;;2.00;;
17763;SDS011;22245;52.832;13.816;2024-02-04T19:36:35;6.53;;;1.90;;
17763;SDS011;22245;52.832;13.816;2024-02-04T19:39:57;5.43;;;2.00;;
17763;SDS011;22245;52.832;13.816;2024-02-04T19:43:18;5.93;;;2.10;;
17763;SDS011;22245;52.832;13.816;2024-02-04T19:46:40;4.37;;;2.20;;
17763;SDS011;22245;52.832;13.816;2024-02-04T19:50:01;5.40;;;2.30;;
17763;SDS011;22245;52.832;13.816;2024-02-04T19:53:26;4.20;;;2.07;;
17763;SDS011;22245;52.832;13.816;2024-02-04T19:56:48;6.90;;;2.37;;
17763;SDS011;22245;52.832;13.816;2024-02-04T20:00:11;4.83;;;1.87;;
17763;SDS011;22245;52.832;13.816;2024-02-04T20:03:32;5.60;;;2.40;;